sensor_id;sensor_type;location;lat;lon;timestamp;P1;durP1;ratioP1;P2;durP2;ratioP2
65879;SDS011;52661;51.364;6.054;2023-08-06T00:00:45;4.63;;;1.30;;
65879;SDS011;52661;51.364;6.054;2023-08-06T00:03:10;3.03;;;1.50;;
65879;SDS011;52661;51.364;6.054;2023-08-06T00:05:36;3.83;;;1.38;;
65879;SDS011;52661;51.364;6.054;2023-08-06T00:08:01;3.50;;;1.05;;
65879;SDS011;52661;51.364;6.054;2023-08-06T00:10:27;5.85;;;1.88;;
65879;SDS011;52661;51.364;6.054;2023-08-06T00:12:52;2.85;;;1.40;;
65879;SDS011;52661;51.364;6.054;2023-08-06T00:15:18;2.92;;;1.42;;
65879;SDS011;52661;51.364;6.054;2023-08-06T00:17:43;3.38;;;1.45;;
65879;SDS011;52661;51.364;6.054;2023-08-06T00:20:09;2.00;;;1.05;;
65879;SDS011;52661;51.364;6.054;2023-08-06T00:22:35;3.35;;;1.25;;
65879;SDS011;52661;51.364;6.054;2023-08-06T00:27:28;3.35;;;1.52;;
65879;SDS011;52661;51.364;6.054;2023-08-06T00:29:53;4.80;;;1.60;;
65879;SDS011;52661;51.364;6.054;2023-08-06T00:32:19;3.42;;;1.25;;
65879;SDS011;52661;51.364;6.054;2023-08-06T00:34:45;4.20;;;1.40;;
65879;SDS011;52661;51.364;6.054;2023-08-06T00:37:10;2.70;;;1.23;;
65879;SDS011;52661;51.364;6.054;2023-08-06T00:39:35;2.80;;;1.10;;
65879;SDS011;52661;51.364;6.054;2023-08-06T00:42:01;2.88;;;1.80;;
65879;SDS011;52661;51.364;6.054;2023-08-06T00:44:26;4.18;;;1.30;;
65879;SDS011;52661;51.364;6.054;2023-08-06T00:46:52;3.40;;;1.33;;
65879;SDS011;52661;51.364;6.054;2023-08-06T00:49:17;3.58;;;1.70;;
65879;SDS011;52661;51.364;6.054;2023-08-06T00:51:43;2.72;;;1.80;;
65879;SDS011;52661;51.364;6.054;2023-08-06T00:54:09;3.63;;;1.83;;
65879;SDS011;52661;51.364;6.054;2023-08-06T00:56:35;3.40;;;1.35;;
65879;SDS011;52661;51.364;6.054;2023-08-06T00:59:02;2.42;;;1.48;;
65879;SDS011;52661;51.364;6.054;2023-08-06T01:01:28;3.03;;;1.52;;
65879;SDS011;52661;51.364;6.054;2023-08-06T01:03:54;3.05;;;1.60;;
65879;SDS011;52661;51.364;6.054;2023-08-06T01:06:19;2.33;;;1.90;;
65879;SDS011;52661;51.364;6.054;2023-08-06T01:08:57;3.42;;;1.98;;
65879;SDS011;52661;51.364;6.054;2023-08-06T01:11:30;3.10;;;1.13;;
65879;SDS011;52661;51.364;6.054;2023-08-06T01:14:08;2.47;;;1.02;;
65879;SDS011;52661;51.364;6.054;2023-08-06T01:16:41;3.47;;;1.50;;
65879;SDS011;52661;51.364;6.054;2023-08-06T01:19:15;3.40;;;1.70;;
65879;SDS011;52661;51.364;6.054;2023-08-06T01:21:44;2.30;;;1.38;;
65879;SDS011;52661;51.364;6.054;2023-08-06T01:24:09;4.88;;;1.38;;
65879;SDS011;52661;51.364;6.054;2023-08-06T01:26:37;1.95;;;1.13;;
65879;SDS011;52661;51.364;6.054;2023-08-06T01:29:18;2.78;;;1.30;;
65879;SDS011;52661;51.364;6.054;2023-08-06T01:31:48;3.58;;;1.00;;
65879;SDS011;52661;51.364;6.054;2023-08-06T01:34:18;5.13;;;1.63;;
65879;SDS011;52661;51.364;6.054;2023-08-06T01:36:46;2.80;;;1.30;;
65879;SDS011;52661;51.364;6.054;2023-08-06T01:39:12;2.92;;;0.63;;
65879;SDS011;52661;51.364;6.054;2023-08-06T01:41:38;2.92;;;1.75;;
65879;SDS011;52661;51.364;6.054;2023-08-06T01:44:04;2.40;;;1.27;;
65879;SDS011;52661;51.364;6.054;2023-08-06T01:46:29;3.25;;;1.40;;
65879;SDS011;52661;51.364;6.054;2023-08-06T01:48:54;2.88;;;1.35;;
65879;SDS011;52661;51.364;6.054;2023-08-06T01:51:20;3.42;;;1.52;;
65879;SDS011;52661;51.364;6.054;2023-08-06T01:53:45;4.25;;;1.10;;
65879;SDS011;52661;51.364;6.054;2023-08-06T01:56:11;2.90;;;0.90;;
65879;SDS011;52661;51.364;6.054;2023-08-06T01:58:36;2.17;;;0.80;;
65879;SDS011;52661;51.364;6.054;2023-08-06T02:01:02;4.25;;;1.50;;
65879;SDS011;52661;51.364;6.054;2023-08-06T02:03:27;2.53;;;0.75;;
65879;SDS011;52661;51.364;6.054;2023-08-06T02:05:53;2.08;;;1.20;;
65879;SDS011;52661;51.364;6.054;2023-08-06T02:08:18;2.80;;;1.17;;
65879;SDS011;52661;51.364;6.054;2023-08-06T02:10:44;2.63;;;1.08;;
65879;SDS011;52661;51.364;6.054;2023-08-06T02:13:10;1.73;;;0.70;;
65879;SDS011;52661;51.364;6.054;2023-08-06T02:15:35;2.42;;;0.75;;
65879;SDS011;52661;51.364;6.054;2023-08-06T02:18:01;3.33;;;1.13;;
65879;SDS011;52661;51.364;6.054;2023-08-06T02:20:26;4.30;;;1.30;;
65879;SDS011;52661;51.364;6.054;2023-08-06T02:22:51;2.50;;;1.20;;
65879;SDS011;52661;51.364;6.054;2023-08-06T02:25:17;4.10;;;1.40;;
65879;SDS011;52661;51.364;6.054;2023-08-06T02:27:42;5.30;;;1.42;;
65879;SDS011;52661;51.364;6.054;2023-08-06T02:30:08;5.20;;;1.45;;
65879;SDS011;52661;51.364;6.054;2023-08-06T02:32:33;3.63;;;1.27;;
65879;SDS011;52661;51.364;6.054;2023-08-06T02:35:01;2.17;;;1.23;;
65879;SDS011;52661;51.364;6.054;2023-08-06T02:37:27;2.10;;;1.10;;
65879;SDS011;52661;51.364;6.054;2023-08-06T02:39:52;2.83;;;1.38;;
65879;SDS011;52661;51.364;6.054;2023-08-06T02:42:17;3.50;;;1.02;;
65879;SDS011;52661;51.364;6.054;2023-08-06T02:44:43;3.33;;;1.10;;
65879;SDS011;52661;51.364;6.054;2023-08-06T02:47:08;2.60;;;1.38;;
65879;SDS011;52661;51.364;6.054;2023-08-06T02:49:33;3.40;;;0.95;;
65879;SDS011;52661;51.364;6.054;2023-08-06T02:51:59;2.63;;;0.98;;
65879;SDS011;52661;51.364;6.054;2023-08-06T02:54:24;3.45;;;1.25;;
65879;SDS011;52661;51.364;6.054;2023-08-06T02:56:50;3.75;;;1.33;;
65879;SDS011;52661;51.364;6.054;2023-08-06T02:59:15;2.35;;;1.67;;
65879;SDS011;52661;51.364;6.054;2023-08-06T03:01:41;2.15;;;1.27;;
65879;SDS011;52661;51.364;6.054;2023-08-06T03:04:07;6.05;;;1.05;;
65879;SDS011;52661;51.364;6.054;2023-08-06T03:06:32;4.82;;;1.27;;
65879;SDS011;52661;51.364;6.054;2023-08-06T03:08:57;3.40;;;1.30;;
65879;SDS011;52661;51.364;6.054;2023-08-06T03:11:23;3.20;;;1.30;;
65879;SDS011;52661;51.364;6.054;2023-08-06T03:13:48;3.15;;;0.82;;
65879;SDS011;52661;51.364;6.054;2023-08-06T03:16:14;2.17;;;0.52;;
65879;SDS011;52661;51.364;6.054;2023-08-06T03:18:39;3.42;;;1.35;;
65879;SDS011;52661;51.364;6.054;2023-08-06T03:21:05;3.17;;;1.08;;
65879;SDS011;52661;51.364;6.054;2023-08-06T03:23:31;2.42;;;1.42;;
65879;SDS011;52661;51.364;6.054;2023-08-06T03:25:56;3.42;;;1.33;;
65879;SDS011;52661;51.364;6.054;2023-08-06T03:28:26;2.75;;;1.23;;
65879;SDS011;52661;51.364;6.054;2023-08-06T03:30:58;2.17;;;0.82;;
65879;SDS011;52661;51.364;6.054;2023-08-06T03:33:28;2.42;;;1.35;;
65879;SDS011;52661;51.364;6.054;2023-08-06T03:35:53;2.47;;;0.50;;
65879;SDS011;52661;51.364;6.054;2023-08-06T03:38:19;2.53;;;1.20;;
65879;SDS011;52661;51.364;6.054;2023-08-06T03:40:45;2.22;;;1.63;;
65879;SDS011;52661;51.364;6.054;2023-08-06T03:43:11;3.00;;;1.10;;
65879;SDS011;52661;51.364;6.054;2023-08-06T03:45:36;1.83;;;1.13;;
65879;SDS011;52661;51.364;6.054;2023-08-06T03:48:02;1.83;;;0.52;;
65879;SDS011;52661;51.364;6.054;2023-08-06T03:50:27;3.67;;;1.73;;
65879;SDS011;52661;51.364;6.054;2023-08-06T03:52:53;4.22;;;1.17;;
65879;SDS011;52661;51.364;6.054;2023-08-06T03:55:18;3.13;;;1.30;;
65879;SDS011;52661;51.364;6.054;2023-08-06T03:57:43;2.90;;;1.15;;
65879;SDS011;52661;51.364;6.054;2023-08-06T04:00:09;2.30;;;1.13;;
65879;SDS011;52661;51.364;6.054;2023-08-06T04:02:34;1.85;;;1.15;;
65879;SDS011;52661;51.364;6.054;2023-08-06T04:05:00;3.72;;;1.40;;
65879;SDS011;52661;51.364;6.054;2023-08-06T04:07:26;3.72;;;1.42;;
65879;SDS011;52661;51.364;6.054;2023-08-06T04:09:56;3.15;;;0.60;;
65879;SDS011;52661;51.364;6.054;2023-08-06T04:12:26;4.47;;;1.35;;
65879;SDS011;52661;51.364;6.054;2023-08-06T04:14:52;3.80;;;0.90;;
65879;SDS011;52661;51.364;6.054;2023-08-06T04:17:19;4.68;;;1.33;;
65879;SDS011;52661;51.364;6.054;2023-08-06T04:19:54;3.13;;;1.02;;
65879;SDS011;52661;51.364;6.054;2023-08-06T04:22:23;3.38;;;1.20;;
65879;SDS011;52661;51.364;6.054;2023-08-06T04:24:48;2.58;;;1.40;;
65879;SDS011;52661;51.364;6.054;2023-08-06T04:27:14;2.15;;;1.17;;
65879;SDS011;52661;51.364;6.054;2023-08-06T04:29:40;3.92;;;1.40;;
65879;SDS011;52661;51.364;6.054;2023-08-06T04:32:07;3.05;;;1.13;;
65879;SDS011;52661;51.364;6.054;2023-08-06T04:34:34;3.05;;;1.25;;
65879;SDS011;52661;51.364;6.054;2023-08-06T04:37:00;2.35;;;1.45;;
65879;SDS011;52661;51.364;6.054;2023-08-06T04:39:26;4.13;;;1.20;;
65879;SDS011;52661;51.364;6.054;2023-08-06T04:41:52;2.30;;;1.02;;
65879;SDS011;52661;51.364;6.054;2023-08-06T04:44:17;2.60;;;0.88;;
65879;SDS011;52661;51.364;6.054;2023-08-06T04:46:43;3.38;;;1.30;;
65879;SDS011;52661;51.364;6.054;2023-08-06T04:49:08;2.53;;;1.52;;
65879;SDS011;52661;51.364;6.054;2023-08-06T04:51:35;2.65;;;1.00;;
65879;SDS011;52661;51.364;6.054;2023-08-06T04:54:01;3.50;;;1.40;;
65879;SDS011;52661;51.364;6.054;2023-08-06T04:56:26;3.70;;;1.27;;
65879;SDS011;52661;51.364;6.054;2023-08-06T04:58:52;2.33;;;1.05;;
65879;SDS011;52661;51.364;6.054;2023-08-06T05:01:17;3.92;;;1.15;;
65879;SDS011;52661;51.364;6.054;2023-08-06T05:03:43;2.40;;;1.13;;
65879;SDS011;52661;51.364;6.054;2023-08-06T05:06:08;2.65;;;1.15;;
65879;SDS011;52661;51.364;6.054;2023-08-06T05:08:34;2.08;;;1.15;;
65879;SDS011;52661;51.364;6.054;2023-08-06T05:10:59;1.42;;;0.25;;
65879;SDS011;52661;51.364;6.054;2023-08-06T05:13:24;3.15;;;1.08;;
65879;SDS011;52661;51.364;6.054;2023-08-06T05:15:50;3.25;;;1.65;;
65879;SDS011;52661;51.364;6.054;2023-08-06T05:18:16;3.65;;;1.33;;
65879;SDS011;52661;51.364;6.054;2023-08-06T05:20:41;1.75;;;1.15;;
65879;SDS011;52661;51.364;6.054;2023-08-06T05:23:08;2.10;;;0.77;;
65879;SDS011;52661;51.364;6.054;2023-08-06T05:25:34;2.53;;;1.05;;
65879;SDS011;52661;51.364;6.054;2023-08-06T05:28:00;5.70;;;1.08;;
65879;SDS011;52661;51.364;6.054;2023-08-06T05:30:27;2.38;;;1.02;;
65879;SDS011;52661;51.364;6.054;2023-08-06T05:32:52;3.75;;;1.08;;
65879;SDS011;52661;51.364;6.054;2023-08-06T05:35:18;1.70;;;1.27;;
65879;SDS011;52661;51.364;6.054;2023-08-06T05:37:43;4.43;;;1.10;;
65879;SDS011;52661;51.364;6.054;2023-08-06T05:40:08;3.15;;;1.27;;
65879;SDS011;52661;51.364;6.054;2023-08-06T05:42:34;2.08;;;0.30;;
65879;SDS011;52661;51.364;6.054;2023-08-06T05:44:59;2.88;;;0.95;;
65879;SDS011;52661;51.364;6.054;2023-08-06T05:47:25;2.65;;;0.77;;
65879;SDS011;52661;51.364;6.054;2023-08-06T05:49:50;4.68;;;1.27;;
65879;SDS011;52661;51.364;6.054;2023-08-06T05:52:16;2.30;;;0.93;;
65879;SDS011;52661;51.364;6.054;2023-08-06T05:54:41;1.98;;;0.88;;
65879;SDS011;52661;51.364;6.054;2023-08-06T05:57:06;1.70;;;1.42;;
65879;SDS011;52661;51.364;6.054;2023-08-06T05:59:32;3.72;;;1.00;;
65879;SDS011;52661;51.364;6.054;2023-08-06T06:01:57;1.65;;;1.02;;
65879;SDS011;52661;51.364;6.054;2023-08-06T06:04:23;3.28;;;0.98;;
65879;SDS011;52661;51.364;6.054;2023-08-06T06:06:48;2.78;;;0.80;;
65879;SDS011;52661;51.364;6.054;2023-08-06T06:09:13;2.67;;;0.93;;
65879;SDS011;52661;51.364;6.054;2023-08-06T06:11:39;1.75;;;0.98;;
65879;SDS011;52661;51.364;6.054;2023-08-06T06:14:04;1.73;;;0.68;;
65879;SDS011;52661;51.364;6.054;2023-08-06T06:16:30;2.13;;;1.05;;
65879;SDS011;52661;51.364;6.054;2023-08-06T06:18:55;2.13;;;1.17;;
65879;SDS011;52661;51.364;6.054;2023-08-06T06:21:22;2.58;;;0.85;;
65879;SDS011;52661;51.364;6.054;2023-08-06T06:23:48;2.38;;;1.15;;
65879;SDS011;52661;51.364;6.054;2023-08-06T06:26:13;4.20;;;1.10;;
65879;SDS011;52661;51.364;6.054;2023-08-06T06:28:39;1.65;;;0.90;;
65879;SDS011;52661;51.364;6.054;2023-08-06T06:31:04;2.40;;;0.80;;
65879;SDS011;52661;51.364;6.054;2023-08-06T06:33:29;3.47;;;1.10;;
65879;SDS011;52661;51.364;6.054;2023-08-06T06:35:55;2.70;;;0.90;;
65879;SDS011;52661;51.364;6.054;2023-08-06T06:38:20;2.22;;;0.90;;
65879;SDS011;52661;51.364;6.054;2023-08-06T06:40:55;2.55;;;1.52;;
65879;SDS011;52661;51.364;6.054;2023-08-06T06:43:21;2.92;;;1.60;;
65879;SDS011;52661;51.364;6.054;2023-08-06T06:45:51;3.22;;;1.83;;
65879;SDS011;52661;51.364;6.054;2023-08-06T06:48:18;3.90;;;2.58;;
65879;SDS011;52661;51.364;6.054;2023-08-06T06:50:46;3.60;;;1.80;;
65879;SDS011;52661;51.364;6.054;2023-08-06T06:53:13;4.13;;;2.72;;
65879;SDS011;52661;51.364;6.054;2023-08-06T06:55:38;3.90;;;1.20;;
65879;SDS011;52661;51.364;6.054;2023-08-06T06:58:03;2.40;;;1.10;;
65879;SDS011;52661;51.364;6.054;2023-08-06T07:00:29;1.90;;;1.38;;
65879;SDS011;52661;51.364;6.054;2023-08-06T07:02:54;1.55;;;0.90;;
65879;SDS011;52661;51.364;6.054;2023-08-06T07:05:20;2.22;;;1.10;;
65879;SDS011;52661;51.364;6.054;2023-08-06T07:07:45;3.03;;;1.35;;
65879;SDS011;52661;51.364;6.054;2023-08-06T07:10:10;4.72;;;1.40;;
65879;SDS011;52661;51.364;6.054;2023-08-06T07:12:36;6.47;;;1.65;;
65879;SDS011;52661;51.364;6.054;2023-08-06T07:15:03;5.38;;;1.73;;
65879;SDS011;52661;51.364;6.054;2023-08-06T07:17:30;4.85;;;1.40;;
65879;SDS011;52661;51.364;6.054;2023-08-06T07:19:55;3.33;;;1.77;;
65879;SDS011;52661;51.364;6.054;2023-08-06T07:22:20;4.33;;;2.17;;
65879;SDS011;52661;51.364;6.054;2023-08-06T07:24:46;6.05;;;1.80;;
65879;SDS011;52661;51.364;6.054;2023-08-06T07:27:11;4.75;;;2.33;;
65879;SDS011;52661;51.364;6.054;2023-08-06T07:29:36;5.47;;;1.73;;
65879;SDS011;52661;51.364;6.054;2023-08-06T07:32:02;2.47;;;1.70;;
65879;SDS011;52661;51.364;6.054;2023-08-06T07:34:27;2.33;;;1.55;;
65879;SDS011;52661;51.364;6.054;2023-08-06T07:36:53;2.47;;;0.90;;
65879;SDS011;52661;51.364;6.054;2023-08-06T07:39:18;4.15;;;1.38;;
65879;SDS011;52661;51.364;6.054;2023-08-06T07:41:43;3.78;;;1.60;;
65879;SDS011;52661;51.364;6.054;2023-08-06T07:44:10;2.15;;;1.17;;
65879;SDS011;52661;51.364;6.054;2023-08-06T07:46:36;5.13;;;1.35;;
65879;SDS011;52661;51.364;6.054;2023-08-06T07:49:02;3.45;;;1.00;;
65879;SDS011;52661;51.364;6.054;2023-08-06T07:51:27;2.03;;;1.15;;
65879;SDS011;52661;51.364;6.054;2023-08-06T07:53:53;2.95;;;1.25;;
65879;SDS011;52661;51.364;6.054;2023-08-06T07:56:18;3.58;;;1.40;;
65879;SDS011;52661;51.364;6.054;2023-08-06T07:58:44;4.40;;;2.20;;
65879;SDS011;52661;51.364;6.054;2023-08-06T08:01:09;3.58;;;1.48;;
65879;SDS011;52661;51.364;6.054;2023-08-06T08:03:35;3.92;;;1.50;;
65879;SDS011;52661;51.364;6.054;2023-08-06T08:06:00;3.72;;;1.75;;
65879;SDS011;52661;51.364;6.054;2023-08-06T08:08:25;3.22;;;1.58;;
65879;SDS011;52661;51.364;6.054;2023-08-06T08:10:51;4.28;;;2.13;;
65879;SDS011;52661;51.364;6.054;2023-08-06T08:13:16;3.92;;;1.63;;
65879;SDS011;52661;51.364;6.054;2023-08-06T08:15:41;5.28;;;2.33;;
65879;SDS011;52661;51.364;6.054;2023-08-06T08:18:07;3.92;;;1.95;;
65879;SDS011;52661;51.364;6.054;2023-08-06T08:20:33;8.63;;;2.75;;
65879;SDS011;52661;51.364;6.054;2023-08-06T08:23:00;5.22;;;1.95;;
65879;SDS011;52661;51.364;6.054;2023-08-06T08:25:25;4.85;;;2.28;;
65879;SDS011;52661;51.364;6.054;2023-08-06T08:27:52;7.57;;;2.83;;
65879;SDS011;52661;51.364;6.054;2023-08-06T08:30:18;4.63;;;2.30;;
65879;SDS011;52661;51.364;6.054;2023-08-06T08:32:43;7.13;;;2.95;;
65879;SDS011;52661;51.364;6.054;2023-08-06T08:35:09;4.38;;;2.42;;
65879;SDS011;52661;51.364;6.054;2023-08-06T08:37:34;4.45;;;2.63;;
65879;SDS011;52661;51.364;6.054;2023-08-06T08:39:59;4.95;;;2.40;;
65879;SDS011;52661;51.364;6.054;2023-08-06T08:42:25;5.85;;;3.30;;
65879;SDS011;52661;51.364;6.054;2023-08-06T08:44:51;5.53;;;2.83;;
65879;SDS011;52661;51.364;6.054;2023-08-06T08:47:18;3.67;;;2.38;;
65879;SDS011;52661;51.364;6.054;2023-08-06T08:49:44;4.38;;;1.33;;
65879;SDS011;52661;51.364;6.054;2023-08-06T08:52:11;3.42;;;1.25;;
65879;SDS011;52661;51.364;6.054;2023-08-06T08:54:39;4.90;;;0.82;;
65879;SDS011;52661;51.364;6.054;2023-08-06T08:57:05;2.35;;;1.73;;
65879;SDS011;52661;51.364;6.054;2023-08-06T08:59:32;2.45;;;0.90;;
65879;SDS011;52661;51.364;6.054;2023-08-06T09:02:00;1.67;;;0.93;;
65879;SDS011;52661;51.364;6.054;2023-08-06T09:04:26;1.13;;;0.73;;
65879;SDS011;52661;51.364;6.054;2023-08-06T09:06:54;1.58;;;1.17;;
65879;SDS011;52661;51.364;6.054;2023-08-06T09:09:34;1.52;;;0.70;;
65879;SDS011;52661;51.364;6.054;2023-08-06T09:12:05;1.73;;;0.82;;
65879;SDS011;52661;51.364;6.054;2023-08-06T09:14:37;1.75;;;1.05;;
65879;SDS011;52661;51.364;6.054;2023-08-06T09:17:03;1.55;;;1.38;;
65879;SDS011;52661;51.364;6.054;2023-08-06T09:19:29;1.38;;;0.70;;
65879;SDS011;52661;51.364;6.054;2023-08-06T09:21:55;1.60;;;0.82;;
65879;SDS011;52661;51.364;6.054;2023-08-06T09:24:22;1.70;;;0.82;;
65879;SDS011;52661;51.364;6.054;2023-08-06T09:26:47;1.85;;;0.93;;
65879;SDS011;52661;51.364;6.054;2023-08-06T09:29:13;2.22;;;1.27;;
65879;SDS011;52661;51.364;6.054;2023-08-06T09:31:46;1.42;;;0.82;;
65879;SDS011;52661;51.364;6.054;2023-08-06T09:34:17;2.47;;;1.58;;
65879;SDS011;52661;51.364;6.054;2023-08-06T09:37:02;2.13;;;1.42;;
65879;SDS011;52661;51.364;6.054;2023-08-06T09:39:29;2.08;;;1.10;;
65879;SDS011;52661;51.364;6.054;2023-08-06T09:41:56;2.10;;;1.30;;
65879;SDS011;52661;51.364;6.054;2023-08-06T09:44:31;2.78;;;1.05;;
65879;SDS011;52661;51.364;6.054;2023-08-06T09:46:58;2.20;;;0.80;;
65879;SDS011;52661;51.364;6.054;2023-08-06T09:49:25;1.88;;;1.00;;
65879;SDS011;52661;51.364;6.054;2023-08-06T09:51:57;2.83;;;1.05;;
65879;SDS011;52661;51.364;6.054;2023-08-06T09:54:24;1.40;;;0.20;;
65879;SDS011;52661;51.364;6.054;2023-08-06T09:56:52;2.47;;;0.95;;
65879;SDS011;52661;51.364;6.054;2023-08-06T09:59:18;3.45;;;1.20;;
65879;SDS011;52661;51.364;6.054;2023-08-06T10:01:45;2.55;;;0.85;;
65879;SDS011;52661;51.364;6.054;2023-08-06T10:04:11;1.83;;;0.93;;
65879;SDS011;52661;51.364;6.054;2023-08-06T10:06:41;2.13;;;1.02;;
65879;SDS011;52661;51.364;6.054;2023-08-06T10:09:10;1.73;;;0.90;;
65879;SDS011;52661;51.364;6.054;2023-08-06T10:11:36;2.78;;;1.02;;
65879;SDS011;52661;51.364;6.054;2023-08-06T10:16:58;3.95;;;0.90;;
65879;SDS011;52661;51.364;6.054;2023-08-06T10:19:25;3.55;;;1.63;;
65879;SDS011;52661;51.364;6.054;2023-08-06T10:25:15;4.00;;;1.33;;
65879;SDS011;52661;51.364;6.054;2023-08-06T10:32:53;4.68;;;1.30;;
65879;SDS011;52661;51.364;6.054;2023-08-06T10:35:29;4.68;;;1.95;;
65879;SDS011;52661;51.364;6.054;2023-08-06T10:38:15;2.75;;;1.63;;
65879;SDS011;52661;51.364;6.054;2023-08-06T10:40:49;3.85;;;1.40;;
65879;SDS011;52661;51.364;6.054;2023-08-06T10:43:34;4.30;;;1.25;;
65879;SDS011;52661;51.364;6.054;2023-08-06T10:46:03;5.47;;;1.90;;
65879;SDS011;52661;51.364;6.054;2023-08-06T10:48:37;5.05;;;1.15;;
65879;SDS011;52661;51.364;6.054;2023-08-06T10:51:07;3.72;;;1.38;;
65879;SDS011;52661;51.364;6.054;2023-08-06T10:53:34;3.90;;;1.10;;
65879;SDS011;52661;51.364;6.054;2023-08-06T10:56:01;3.58;;;1.17;;
65879;SDS011;52661;51.364;6.054;2023-08-06T10:58:36;3.63;;;1.08;;
65879;SDS011;52661;51.364;6.054;2023-08-06T11:01:01;5.05;;;1.27;;
65879;SDS011;52661;51.364;6.054;2023-08-06T11:03:27;2.75;;;1.13;;
65879;SDS011;52661;51.364;6.054;2023-08-06T11:05:53;5.93;;;1.02;;
65879;SDS011;52661;51.364;6.054;2023-08-06T11:08:27;2.75;;;1.30;;
65879;SDS011;52661;51.364;6.054;2023-08-06T11:10:55;5.35;;;1.52;;
65879;SDS011;52661;51.364;6.054;2023-08-06T11:13:21;3.65;;;1.23;;
65879;SDS011;52661;51.364;6.054;2023-08-06T11:15:46;3.53;;;1.40;;
65879;SDS011;52661;51.364;6.054;2023-08-06T11:18:12;6.40;;;1.70;;
65879;SDS011;52661;51.364;6.054;2023-08-06T11:20:38;5.65;;;1.60;;
65879;SDS011;52661;51.364;6.054;2023-08-06T11:23:04;3.08;;;1.38;;
65879;SDS011;52661;51.364;6.054;2023-08-06T11:25:30;2.10;;;1.05;;
65879;SDS011;52661;51.364;6.054;2023-08-06T11:27:56;5.05;;;1.55;;
65879;SDS011;52661;51.364;6.054;2023-08-06T11:30:21;2.10;;;0.95;;
65879;SDS011;52661;51.364;6.054;2023-08-06T11:32:47;3.88;;;1.50;;
65879;SDS011;52661;51.364;6.054;2023-08-06T11:35:14;3.75;;;1.42;;
65879;SDS011;52661;51.364;6.054;2023-08-06T11:37:44;3.72;;;1.25;;
65879;SDS011;52661;51.364;6.054;2023-08-06T11:40:10;5.18;;;1.35;;
65879;SDS011;52661;51.364;6.054;2023-08-06T11:42:37;2.95;;;1.30;;
65879;SDS011;52661;51.364;6.054;2023-08-06T11:45:02;3.53;;;1.20;;
65879;SDS011;52661;51.364;6.054;2023-08-06T11:47:29;5.05;;;1.33;;
65879;SDS011;52661;51.364;6.054;2023-08-06T11:49:55;3.17;;;1.27;;
65879;SDS011;52661;51.364;6.054;2023-08-06T11:52:21;3.53;;;1.17;;
65879;SDS011;52661;51.364;6.054;2023-08-06T11:55:04;3.10;;;1.25;;
65879;SDS011;52661;51.364;6.054;2023-08-06T11:57:37;3.08;;;1.58;;
65879;SDS011;52661;51.364;6.054;2023-08-06T12:00:05;2.70;;;2.05;;
65879;SDS011;52661;51.364;6.054;2023-08-06T12:02:34;3.42;;;1.38;;
65879;SDS011;52661;51.364;6.054;2023-08-06T12:05:09;2.85;;;1.05;;
65879;SDS011;52661;51.364;6.054;2023-08-06T12:07:46;2.92;;;1.30;;
65879;SDS011;52661;51.364;6.054;2023-08-06T12:10:13;2.30;;;0.95;;
65879;SDS011;52661;51.364;6.054;2023-08-06T12:12:39;4.70;;;1.40;;
65879;SDS011;52661;51.364;6.054;2023-08-06T12:15:05;2.75;;;1.13;;
65879;SDS011;52661;51.364;6.054;2023-08-06T12:17:32;3.92;;;1.60;;
65879;SDS011;52661;51.364;6.054;2023-08-06T12:19:58;3.35;;;1.33;;
65879;SDS011;52661;51.364;6.054;2023-08-06T12:22:24;3.03;;;1.05;;
65879;SDS011;52661;51.364;6.054;2023-08-06T12:24:49;3.92;;;1.27;;
65879;SDS011;52661;51.364;6.054;2023-08-06T12:27:15;4.18;;;1.58;;
65879;SDS011;52661;51.364;6.054;2023-08-06T12:29:44;4.53;;;2.03;;
65879;SDS011;52661;51.364;6.054;2023-08-06T12:32:11;3.53;;;1.30;;
65879;SDS011;52661;51.364;6.054;2023-08-06T12:34:40;3.70;;;1.35;;
65879;SDS011;52661;51.364;6.054;2023-08-06T12:37:07;5.55;;;1.77;;
65879;SDS011;52661;51.364;6.054;2023-08-06T12:39:33;3.97;;;1.58;;
65879;SDS011;52661;51.364;6.054;2023-08-06T12:42:00;4.60;;;1.55;;
65879;SDS011;52661;51.364;6.054;2023-08-06T12:44:26;4.55;;;2.38;;
65879;SDS011;52661;51.364;6.054;2023-08-06T12:46:53;5.18;;;2.53;;
65879;SDS011;52661;51.364;6.054;2023-08-06T12:49:19;3.92;;;2.10;;
65879;SDS011;52661;51.364;6.054;2023-08-06T12:51:48;4.13;;;2.15;;
65879;SDS011;52661;51.364;6.054;2023-08-06T12:54:15;4.75;;;1.67;;
65879;SDS011;52661;51.364;6.054;2023-08-06T12:56:42;6.25;;;1.83;;
65879;SDS011;52661;51.364;6.054;2023-08-06T12:59:08;5.32;;;2.22;;
65879;SDS011;52661;51.364;6.054;2023-08-06T13:01:33;3.35;;;1.73;;
65879;SDS011;52661;51.364;6.054;2023-08-06T13:03:59;3.92;;;2.03;;
65879;SDS011;52661;51.364;6.054;2023-08-06T13:06:25;4.07;;;1.67;;
65879;SDS011;52661;51.364;6.054;2023-08-06T13:08:50;3.63;;;1.77;;
65879;SDS011;52661;51.364;6.054;2023-08-06T13:11:15;8.40;;;2.15;;
65879;SDS011;52661;51.364;6.054;2023-08-06T13:13:41;4.28;;;1.80;;
65879;SDS011;52661;51.364;6.054;2023-08-06T13:16:06;4.68;;;1.55;;
65879;SDS011;52661;51.364;6.054;2023-08-06T13:18:32;3.78;;;1.55;;
65879;SDS011;52661;51.364;6.054;2023-08-06T13:20:57;4.03;;;1.52;;
65879;SDS011;52661;51.364;6.054;2023-08-06T13:23:23;4.47;;;1.95;;
65879;SDS011;52661;51.364;6.054;2023-08-06T13:25:48;6.85;;;2.05;;
65879;SDS011;52661;51.364;6.054;2023-08-06T13:28:14;2.92;;;1.63;;
65879;SDS011;52661;51.364;6.054;2023-08-06T13:30:39;6.93;;;2.88;;
65879;SDS011;52661;51.364;6.054;2023-08-06T13:33:10;4.20;;;1.95;;
65879;SDS011;52661;51.364;6.054;2023-08-06T13:35:36;5.90;;;2.33;;
65879;SDS011;52661;51.364;6.054;2023-08-06T13:38:02;4.97;;;1.30;;
65879;SDS011;52661;51.364;6.054;2023-08-06T13:40:32;6.15;;;1.63;;
65879;SDS011;52661;51.364;6.054;2023-08-06T13:42:58;5.28;;;2.05;;
65879;SDS011;52661;51.364;6.054;2023-08-06T13:45:24;5.80;;;1.95;;
65879;SDS011;52661;51.364;6.054;2023-08-06T13:47:49;5.50;;;2.10;;
65879;SDS011;52661;51.364;6.054;2023-08-06T13:50:15;4.63;;;1.85;;
65879;SDS011;52661;51.364;6.054;2023-08-06T13:52:40;6.53;;;2.15;;
65879;SDS011;52661;51.364;6.054;2023-08-06T13:55:06;5.15;;;2.03;;
65879;SDS011;52661;51.364;6.054;2023-08-06T13:57:32;4.25;;;1.83;;
65879;SDS011;52661;51.364;6.054;2023-08-06T13:59:58;3.40;;;1.35;;
65879;SDS011;52661;51.364;6.054;2023-08-06T14:02:23;4.53;;;0.90;;
65879;SDS011;52661;51.364;6.054;2023-08-06T14:04:49;3.67;;;1.00;;
65879;SDS011;52661;51.364;6.054;2023-08-06T14:07:14;3.72;;;1.17;;
65879;SDS011;52661;51.364;6.054;2023-08-06T14:09:40;2.42;;;0.60;;
65879;SDS011;52661;51.364;6.054;2023-08-06T14:12:07;3.60;;;0.88;;
65879;SDS011;52661;51.364;6.054;2023-08-06T14:14:32;3.40;;;1.15;;
65879;SDS011;52661;51.364;6.054;2023-08-06T14:16:58;2.45;;;1.08;;
65879;SDS011;52661;51.364;6.054;2023-08-06T14:19:23;3.05;;;0.88;;
65879;SDS011;52661;51.364;6.054;2023-08-06T14:21:49;6.10;;;1.55;;
65879;SDS011;52661;51.364;6.054;2023-08-06T14:24:14;3.15;;;0.32;;
65879;SDS011;52661;51.364;6.054;2023-08-06T14:26:40;5.00;;;1.30;;
65879;SDS011;52661;51.364;6.054;2023-08-06T14:29:05;2.80;;;0.90;;
65879;SDS011;52661;51.364;6.054;2023-08-06T14:31:31;4.88;;;1.20;;
65879;SDS011;52661;51.364;6.054;2023-08-06T14:33:56;2.42;;;0.93;;
65879;SDS011;52661;51.364;6.054;2023-08-06T14:36:22;1.88;;;0.90;;
65879;SDS011;52661;51.364;6.054;2023-08-06T14:38:47;4.23;;;1.10;;
65879;SDS011;52661;51.364;6.054;2023-08-06T14:41:12;2.90;;;0.55;;
65879;SDS011;52661;51.364;6.054;2023-08-06T14:43:38;2.80;;;0.80;;
65879;SDS011;52661;51.364;6.054;2023-08-06T14:46:03;3.72;;;0.95;;
65879;SDS011;52661;51.364;6.054;2023-08-06T14:48:30;2.38;;;1.20;;
65879;SDS011;52661;51.364;6.054;2023-08-06T14:50:55;3.72;;;1.13;;
65879;SDS011;52661;51.364;6.054;2023-08-06T14:53:21;5.10;;;1.20;;
65879;SDS011;52661;51.364;6.054;2023-08-06T14:55:46;2.38;;;0.93;;
65879;SDS011;52661;51.364;6.054;2023-08-06T14:58:11;5.38;;;1.10;;